createdAt,value
2023-04-23T00:02:53.040Z,99691.55
2023-04-23T00:06:57.497Z,99692.43
2023-04-23T00:11:02.305Z,99690.28
2023-04-23T00:15:07.529Z,99686.52
2023-04-23T00:19:10.822Z,99688.30
2023-04-23T00:23:14.268Z,99685.20
2023-04-23T00:27:19.649Z,99684.14
2023-04-23T00:31:24.457Z,99678.65
2023-04-23T00:35:28.039Z,99667.70
2023-04-23T00:39:31.775Z,99662.36
2023-04-23T00:43:35.518Z,99658.44
2023-04-23T00:47:47.821Z,99659.23
2023-04-23T00:51:51.966Z,99653.70
2023-04-23T00:55:55.735Z,99650.67
2023-04-23T01:00:00.329Z,99647.78
2023-04-23T01:04:03.994Z,99646.46
2023-04-23T01:12:57.830Z,99640.14
2023-04-23T01:17:04.607Z,99642.96
2023-04-23T01:21:12.385Z,99642.54
2023-04-23T01:25:27.389Z,99637.17
2023-04-23T01:29:43.769Z,99634.62
2023-04-23T01:33:47.329Z,99632.04
2023-04-23T01:37:54.993Z,99634.49
2023-04-23T01:41:58.672Z,99633.30
2023-04-23T01:46:02.264Z,99633.80
2023-04-23T01:50:06.104Z,99631.27
2023-04-23T01:54:09.597Z,99632.58
2023-04-23T01:58:13.254Z,99632.63
2023-04-23T02:02:16.613Z,99625.13
2023-04-23T02:06:20.069Z,99621.56
2023-04-23T02:10:23.510Z,99621.83
2023-04-23T02:14:26.658Z,99619.66
2023-04-23T02:18:30.061Z,99616.17
2023-04-23T02:22:33.675Z,99611.39
2023-04-23T02:26:37.103Z,99608.56
2023-04-23T02:30:58.693Z,99608.79
2023-04-23T02:35:04.013Z,99609.35
2023-04-23T02:39:07.933Z,99603.65
2023-04-23T02:43:11.491Z,99601.59
2023-04-23T02:47:14.788Z,99600.92
2023-04-23T02:51:18.073Z,99600.55
2023-04-23T02:55:21.458Z,99594.85
2023-04-23T02:59:25.881Z,99591.33
2023-04-23T03:03:32.924Z,99589.02
2023-04-23T03:07:36.417Z,99588.61
2023-04-23T03:11:39.900Z,99585.55
2023-04-23T03:15:43.908Z,99589.36
2023-04-23T03:19:48.004Z,99586.20
2023-04-23T03:23:51.316Z,99587.35
2023-04-23T03:27:55.016Z,99584.98
2023-04-23T03:31:58.814Z,99583.45
2023-04-23T03:36:02.472Z,99581.75
2023-04-23T03:40:07.989Z,99580.16
2023-04-23T03:44:11.565Z,99574.94
2023-04-23T03:48:15.214Z,99578.52
2023-04-23T03:52:19.517Z,99576.02
2023-04-23T03:56:23.761Z,99579.19
2023-04-23T04:00:28.817Z,99579.52
2023-04-23T04:04:32.894Z,99578.63
2023-04-23T04:08:36.454Z,99575.72
2023-04-23T04:12:47.301Z,99574.79
2023-04-23T04:16:51.075Z,99571.73
2023-04-23T04:20:55.373Z,99569.32
2023-04-23T04:24:58.728Z,99563.72
2023-04-23T04:29:02.044Z,99563.79
2023-04-23T04:33:05.513Z,99559.16
2023-04-23T04:37:11.444Z,99558.91
2023-04-23T04:41:15.646Z,99556.75
2023-04-23T04:45:20.780Z,99550.84
2023-04-23T04:49:24.120Z,99547.16
2023-04-23T04:53:27.679Z,99546.26
2023-04-23T04:57:31.296Z,99549.91
2023-04-23T05:01:34.767Z,99552.27
2023-04-23T05:05:38.057Z,99549.14
2023-04-23T05:09:42.940Z,99547.27
2023-04-23T05:13:48.642Z,99545.35
2023-04-23T05:17:53.755Z,99544.23
2023-04-23T05:21:56.959Z,99543.52
2023-04-23T05:26:00.174Z,99540.95
2023-04-23T05:30:05.310Z,99541.00
2023-04-23T05:34:08.619Z,99539.52
2023-04-23T05:38:11.844Z,99536.55
2023-04-23T05:42:14.950Z,99535.04
2023-04-23T05:46:19.268Z,99532.77
2023-04-23T05:50:22.575Z,99533.10
2023-04-23T05:54:25.786Z,99533.30
2023-04-23T05:58:28.972Z,99530.44
2023-04-23T06:02:34.031Z,99529.46
2023-04-23T06:06:37.193Z,99524.09
2023-04-23T06:10:40.492Z,99524.98
2023-04-23T06:14:43.894Z,99522.56
2023-04-23T06:18:47.619Z,99522.73
2023-04-23T06:22:51.496Z,99524.09
2023-04-23T06:26:54.922Z,99526.73
2023-04-23T06:30:58.118Z,99524.32
2023-04-23T06:35:02.318Z,99523.88
2023-04-23T06:39:05.626Z,99522.30
2023-04-23T06:43:09.781Z,99517.78
2023-04-23T06:47:12.907Z,99518.04
2023-04-23T06:51:16.493Z,99506.52
2023-04-23T06:55:19.693Z,99502.66
2023-04-23T06:59:22.714Z,99497.73
2023-04-23T07:03:30.328Z,99499.21
2023-04-23T07:07:34.185Z,99496.98
2023-04-23T07:11:37.222Z,99497.48
2023-04-23T07:15:41.670Z,99510.33
2023-04-23T07:19:44.687Z,99522.06
2023-04-23T07:23:47.618Z,99500.79
2023-04-23T07:27:51.916Z,99500.42
2023-04-23T07:36:52.828Z,99491.08
2023-04-23T07:41:26.250Z,99493.67
2023-04-23T07:45:29.348Z,99486.42
2023-04-23T07:49:32.175Z,99476.35
2023-04-23T07:53:36.185Z,99469.20
2023-04-23T07:57:39.487Z,99464.46
2023-04-23T08:01:42.489Z,99460.16
2023-04-23T08:05:47.666Z,99458.94
2023-04-23T08:09:50.712Z,99467.45
2023-04-23T08:13:54.034Z,99463.24
2023-04-23T08:18:23.225Z,99454.71
2023-04-23T08:22:25.995Z,99452.95
2023-04-23T08:26:29.010Z,99458.65
2023-04-23T08:30:31.945Z,99454.92
2023-04-23T08:34:37.286Z,99456.13
2023-04-23T08:38:41.233Z,99450.20
2023-04-23T08:43:20.598Z,99449.04
2023-04-23T08:47:25.888Z,99443.71
2023-04-23T08:51:34.434Z,99441.95
2023-04-23T08:55:37.423Z,99444.88
2023-04-23T08:59:41.384Z,99446.82
2023-04-23T09:03:47.301Z,99446.84
2023-04-23T09:07:56.330Z,99440.30
2023-04-23T09:11:59.173Z,99443.65
2023-04-23T09:16:02.125Z,99438.91
2023-04-23T09:20:07.353Z,99442.02
2023-04-23T09:24:18.778Z,99438.46
2023-04-23T09:28:21.694Z,99439.56
2023-04-23T09:32:35.440Z,99432.66
2023-04-23T09:36:38.621Z,99435.21
2023-04-23T09:45:36.294Z,99427.91
2023-04-23T09:49:51.475Z,99431.30
2023-04-23T09:53:55.720Z,99426.98
2023-04-23T09:57:58.698Z,99426.12
2023-04-23T10:02:07.068Z,99424.23
2023-04-23T10:06:25.734Z,99425.80
2023-04-23T10:10:51.496Z,99430.42
2023-04-23T10:15:27.302Z,99425.83
2023-04-23T10:19:32.889Z,99428.13
2023-04-23T10:23:38.335Z,99425.52
2023-04-23T10:27:53.222Z,99427.06
2023-04-23T10:32:01.304Z,99438.23
2023-04-23T10:36:04.749Z,99438.83
2023-04-23T10:40:15.466Z,99440.15
2023-04-23T10:44:44.876Z,99445.17
2023-04-23T10:49:06.630Z,99444.23
2023-04-23T10:53:22.474Z,99447.39
2023-04-23T10:57:25.737Z,99453.98
2023-04-23T11:01:32.896Z,99456.58
2023-04-23T11:05:36.060Z,99464.27
2023-04-23T11:09:41.913Z,99463.30
2023-04-23T11:13:57.272Z,99463.31
2023-04-23T11:18:02.541Z,99472.48
2023-04-23T11:22:21.576Z,99478.02
2023-04-23T11:26:31.516Z,99486.34
2023-04-23T11:30:40.827Z,99489.31
2023-04-23T11:34:46.935Z,99483.86
2023-04-23T11:38:50.262Z,99481.02
2023-04-23T11:42:55.339Z,99483.80
2023-04-23T11:47:02.730Z,99485.45
2023-04-23T11:51:05.896Z,99487.85
2023-04-23T11:55:09.018Z,99487.41
2023-04-23T11:59:12.000Z,99487.94
2023-04-23T12:03:16.935Z,99490.73
2023-04-23T12:07:26.396Z,99487.27
2023-04-23T12:11:30.680Z,99489.59
2023-04-23T12:38:26.616Z,99499.67
2023-04-23T12:42:32.427Z,99499.55
2023-04-23T12:51:12.294Z,99501.30
2023-04-23T12:55:15.107Z,99499.00
2023-04-23T12:59:18.060Z,99496.26
2023-04-23T13:03:21.169Z,99495.81
2023-04-23T13:07:24.175Z,99494.03
2023-04-23T13:11:26.931Z,99493.68
2023-04-23T13:15:30.596Z,99495.20
2023-04-23T13:19:36.328Z,99497.48
2023-04-23T13:23:46.711Z,99498.38
2023-04-23T13:27:49.544Z,99495.70
2023-04-23T13:31:52.669Z,99497.96
2023-04-23T13:35:57.311Z,99489.39
2023-04-23T13:40:01.366Z,99487.42
2023-04-23T13:44:04.153Z,99486.70
2023-04-23T13:48:08.360Z,99482.02
2023-04-23T13:52:14.845Z,99482.14
2023-04-23T13:56:18.058Z,99481.63
2023-04-23T14:00:20.873Z,99478.61
2023-04-23T14:04:24.816Z,99478.65
2023-04-23T14:08:27.880Z,99477.72
2023-04-23T14:12:30.936Z,99476.14
2023-04-23T14:16:33.871Z,99478.95
2023-04-23T14:20:37.015Z,99487.17
2023-04-23T14:24:46.536Z,99484.80
2023-04-23T14:28:53.192Z,99484.86
2023-04-23T14:32:57.010Z,99487.63
2023-04-23T14:37:08.291Z,99485.82
2023-04-23T14:45:43.303Z,99482.80
2023-04-23T14:49:47.394Z,99480.55
2023-04-23T14:53:56.647Z,99479.77
2023-04-23T14:58:01.670Z,99472.84
2023-04-23T15:02:05.084Z,99470.09
2023-04-23T15:06:08.785Z,99469.70
2023-04-23T15:10:45.281Z,99465.48
2023-04-23T15:14:51.219Z,99468.06
2023-04-23T15:18:54.340Z,99464.41
2023-04-23T15:28:25.771Z,99464.38
2023-04-23T15:32:29.264Z,99464.23
2023-04-23T15:36:33.452Z,99466.46
2023-04-23T15:40:42.249Z,99465.96
2023-04-23T15:44:49.016Z,99465.52
2023-04-23T15:48:52.541Z,99470.55
2023-04-23T15:52:58.475Z,99463.52
2023-04-23T15:57:02.787Z,99462.80
2023-04-23T16:01:07.490Z,99461.20
2023-04-23T16:05:12.054Z,99459.28
2023-04-23T16:09:17.835Z,99456.95
2023-04-23T16:13:21.029Z,99452.65
2023-04-23T16:17:25.225Z,99447.09
2023-04-23T16:21:30.145Z,99444.13
2023-04-23T16:25:33.672Z,99441.11
2023-04-23T16:29:40.176Z,99440.54
2023-04-23T16:33:43.174Z,99437.90
2023-04-23T16:37:45.970Z,99439.25
2023-04-23T16:41:48.760Z,99436.53
2023-04-23T16:45:51.702Z,99432.33
2023-04-23T16:49:54.616Z,99428.70
2023-04-23T16:53:57.501Z,99422.67
2023-04-23T16:58:00.434Z,99420.14
2023-04-23T17:02:53.339Z,99413.92
2023-04-23T17:07:22.989Z,99408.44
2023-04-23T17:11:29.479Z,99398.75
2023-04-23T17:15:32.334Z,99396.59
2023-04-23T17:19:54.542Z,99399.02
2023-04-23T17:23:57.719Z,99396.26
2023-04-23T17:28:00.853Z,99394.15
2023-04-23T17:32:04.460Z,99393.95
2023-04-23T17:36:07.563Z,99385.14
2023-04-23T17:40:10.906Z,99384.16
2023-04-23T17:44:28.492Z,99384.95
2023-04-23T17:48:31.761Z,99376.23
2023-04-23T17:52:35.005Z,99378.13
2023-04-23T17:56:38.516Z,99374.01
2023-04-23T18:00:42.700Z,99379.89
2023-04-23T18:04:45.895Z,99379.14
2023-04-23T18:08:49.564Z,99383.31
2023-04-23T18:12:52.882Z,99381.40
2023-04-23T18:16:56.117Z,99384.06
2023-04-23T18:20:59.527Z,99382.30
2023-04-23T18:25:02.811Z,99381.33
2023-04-23T18:29:06.665Z,99376.25
2023-04-23T18:33:19.483Z,99380.81
2023-04-23T18:37:33.334Z,99380.19
2023-04-23T18:41:37.639Z,99371.83
2023-04-23T18:45:40.907Z,99365.87
2023-04-23T18:49:46.673Z,99367.33
2023-04-23T18:53:50.074Z,99370.48
2023-04-23T18:57:53.409Z,99371.75
2023-04-23T19:01:56.998Z,99372.86
2023-04-23T19:06:00.360Z,99366.41
2023-04-23T19:10:04.032Z,99360.88
2023-04-23T19:14:07.382Z,99357.68
2023-04-23T19:18:14.418Z,99359.15
2023-04-23T19:22:18.096Z,99358.95
2023-04-23T19:26:21.546Z,99350.91
2023-04-23T19:30:25.133Z,99353.98
2023-04-23T19:34:28.579Z,99351.89
2023-04-23T19:38:34.295Z,99358.11
2023-04-23T19:42:38.470Z,99354.85
2023-04-23T19:46:43.260Z,99351.85
2023-04-23T19:50:49.504Z,99354.94
2023-04-23T19:59:14.142Z,99350.40
2023-04-23T20:03:18.214Z,99345.15
2023-04-23T20:07:22.227Z,99343.81
2023-04-23T20:11:29.930Z,99342.09
2023-04-23T20:15:34.343Z,99341.87
2023-04-23T20:19:45.464Z,99336.14
2023-04-23T20:23:51.751Z,99334.41
2023-04-23T20:42:39.373Z,99330.77
2023-04-23T20:46:45.467Z,99322.17
2023-04-23T20:50:48.282Z,99309.58
2023-04-23T20:54:54.391Z,99296.74
2023-04-23T20:58:57.812Z,99285.70
2023-04-23T21:03:55.652Z,99285.02
2023-04-23T21:07:58.572Z,99286.94
2023-04-23T21:17:32.877Z,99266.60
2023-04-23T21:21:40.732Z,99259.30
2023-04-23T21:25:43.496Z,99247.09
2023-04-23T21:29:46.872Z,99256.60
2023-04-23T21:33:49.794Z,99262.86
2023-04-23T21:37:55.742Z,99257.33
2023-04-23T21:41:58.488Z,99247.89
2023-04-23T21:46:01.576Z,99249.63
2023-04-23T21:50:08.388Z,99243.77
2023-04-23T21:54:11.209Z,99242.00
2023-04-23T21:58:21.173Z,99243.37
2023-04-23T22:02:24.645Z,99246.54
2023-04-23T22:06:27.765Z,99248.30
2023-04-23T22:11:00.208Z,99247.52
2023-04-23T22:15:03.712Z,99240.27
2023-04-23T22:19:06.912Z,99233.60
2023-04-23T22:23:09.955Z,99227.92
2023-04-23T22:27:12.789Z,99220.30
2023-04-23T22:31:17.398Z,99216.63
2023-04-23T22:35:20.291Z,99217.06
2023-04-23T22:39:23.247Z,99221.99
2023-04-23T22:43:26.258Z,99218.42
2023-04-23T22:47:42.713Z,99214.67
2023-04-23T22:51:45.591Z,99214.60
2023-04-23T22:55:58.331Z,99213.08
2023-04-23T23:00:01.130Z,99210.42
2023-04-23T23:04:06.980Z,99204.36
2023-04-23T23:08:09.761Z,99194.09
2023-04-23T23:12:14.764Z,99192.77
2023-04-23T23:16:18.062Z,99190.92
2023-04-23T23:20:20.937Z,99185.72
2023-04-23T23:24:23.715Z,99180.96
2023-04-23T23:28:42.121Z,99174.75
2023-04-23T23:32:46.179Z,99171.94
2023-04-23T23:36:51.078Z,99172.29
2023-04-23T23:41:21.004Z,99171.90
2023-04-23T23:45:23.878Z,99174.94
2023-04-23T23:49:26.785Z,99175.19
2023-04-23T23:53:29.577Z,99178.16
2023-04-23T23:57:36.654Z,99175.88
